sensor_id;sensor_type;location;lat;lon;timestamp;pressure;altitude;pressure_sealevel;temperature;humidity
36378;BME280;22402;42.746;23.606;2023-02-20T07:11:40;94025.03;;;8.29;79.25
36378;BME280;22402;42.746;23.606;2023-02-20T07:14:06;94023.50;;;8.38;78.99
36378;BME280;22402;42.746;23.606;2023-02-20T07:16:31;94027.94;;;8.49;77.93
36378;BME280;22402;42.746;23.606;2023-02-20T07:18:57;94033.97;;;8.60;76.90
36378;BME280;22402;42.746;23.606;2023-02-20T07:21:22;94020.97;;;8.72;76.52
36378;BME280;22402;42.746;23.606;2023-02-20T07:23:47;94024.16;;;8.86;75.64
36378;BME280;22402;42.746;23.606;2023-02-20T07:26:20;94013.59;;;8.99;74.95
36378;BME280;22402;42.746;23.606;2023-02-20T07:28:46;94011.31;;;9.17;74.74
36378;BME280;22402;42.746;23.606;2023-02-20T07:31:11;94025.69;;;9.32;73.18
36378;BME280;22402;42.746;23.606;2023-02-20T07:33:36;94020.78;;;9.50;73.01
36378;BME280;22402;42.746;23.606;2023-02-20T07:36:02;94025.47;;;9.68;70.45
36378;BME280;22402;42.746;23.606;2023-02-20T07:38:27;94027.19;;;9.78;69.15
36378;BME280;22402;42.746;23.606;2023-02-20T07:40:52;94028.09;;;9.89;68.63
36378;BME280;22402;42.746;23.606;2023-02-20T07:43:17;94032.66;;;9.96;68.49
36378;BME280;22402;42.746;23.606;2023-02-20T07:45:42;94035.09;;;10.09;68.47
36378;BME280;22402;42.746;23.606;2023-02-20T07:48:08;94024.38;;;10.23;67.51
36378;BME280;22402;42.746;23.606;2023-02-20T07:50:33;94027.63;;;10.37;66.06
36378;BME280;22402;42.746;23.606;2023-02-20T07:52:58;94033.13;;;10.43;63.52
36378;BME280;22402;42.746;23.606;2023-02-20T07:55:23;94032.50;;;10.51;63.70
36378;BME280;22402;42.746;23.606;2023-02-20T07:57:49;94032.69;;;10.59;63.33
36378;BME280;22402;42.746;23.606;2023-02-20T08:00:17;94036.41;;;10.66;62.89
36378;BME280;22402;42.746;23.606;2023-02-20T08:02:46;94046.31;;;10.72;61.32
36378;BME280;22402;42.746;23.606;2023-02-20T08:05:11;94042.25;;;10.80;59.96
36378;BME280;22402;42.746;23.606;2023-02-20T08:07:37;94041.00;;;10.84;59.48
36378;BME280;22402;42.746;23.606;2023-02-20T08:10:02;94048.56;;;10.87;58.68
36378;BME280;22402;42.746;23.606;2023-02-20T08:12:28;94041.31;;;10.90;58.39
36378;BME280;22402;42.746;23.606;2023-02-20T08:14:53;94045.19;;;10.96;57.97
36378;BME280;22402;42.746;23.606;2023-02-20T08:17:18;94047.41;;;11.01;57.69
36378;BME280;22402;42.746;23.606;2023-02-20T08:19:44;94046.59;;;11.10;56.63
36378;BME280;22402;42.746;23.606;2023-02-20T08:22:09;94058.16;;;11.17;55.71
36378;BME280;22402;42.746;23.606;2023-02-20T08:24:34;94055.84;;;11.24;56.06
36378;BME280;22402;42.746;23.606;2023-02-20T08:26:59;94069.75;;;11.34;55.27
36378;BME280;22402;42.746;23.606;2023-02-20T08:29:25;94060.97;;;11.45;54.33
36378;BME280;22402;42.746;23.606;2023-02-20T08:31:50;94051.22;;;11.56;54.77
36378;BME280;22402;42.746;23.606;2023-02-20T08:34:15;94050.72;;;11.72;53.62
36378;BME280;22402;42.746;23.606;2023-02-20T08:36:40;94041.09;;;11.82;52.95
36378;BME280;22402;42.746;23.606;2023-02-20T08:39:05;94044.69;;;11.91;52.70
36378;BME280;22402;42.746;23.606;2023-02-20T08:41:31;94040.28;;;12.01;51.74
36378;BME280;22402;42.746;23.606;2023-02-20T08:43:56;94040.84;;;12.15;51.64
36378;BME280;22402;42.746;23.606;2023-02-20T08:46:21;94031.88;;;12.27;51.02
36378;BME280;22402;42.746;23.606;2023-02-20T08:48:46;94035.97;;;12.39;50.97
36378;BME280;22402;42.746;23.606;2023-02-20T08:51:12;94025.06;;;12.53;50.15
36378;BME280;22402;42.746;23.606;2023-02-20T08:53:37;94020.75;;;12.72;49.45
36378;BME280;22402;42.746;23.606;2023-02-20T08:56:03;94022.91;;;12.86;49.01
36378;BME280;22402;42.746;23.606;2023-02-20T08:58:29;94012.63;;;13.03;48.58
36378;BME280;22402;42.746;23.606;2023-02-20T09:00:54;94017.66;;;13.14;47.67
36378;BME280;22402;42.746;23.606;2023-02-20T09:03:19;94001.53;;;13.18;45.92
36378;BME280;22402;42.746;23.606;2023-02-20T09:05:44;94013.78;;;13.28;46.00
36378;BME280;22402;42.746;23.606;2023-02-20T09:08:10;93997.19;;;13.37;46.28
36378;BME280;22402;42.746;23.606;2023-02-20T09:10:35;94004.00;;;13.48;45.67
36378;BME280;22402;42.746;23.606;2023-02-20T09:13:00;93997.50;;;13.52;44.90
36378;BME280;22402;42.746;23.606;2023-02-20T09:15:26;93996.00;;;13.49;44.30
36378;BME280;22402;42.746;23.606;2023-02-20T09:17:51;63716.94;;;-144.61;100.00
36378;BME280;22402;42.746;23.606;2023-02-20T09:20:16;93996.50;;;13.53;44.65
36378;BME280;22402;42.746;23.606;2023-02-20T09:22:42;93994.38;;;13.66;45.01
36378;BME280;22402;42.746;23.606;2023-02-20T09:25:09;94002.00;;;13.77;43.96
36378;BME280;22402;42.746;23.606;2023-02-20T09:27:34;93993.25;;;13.86;43.07
36378;BME280;22402;42.746;23.606;2023-02-20T09:29:59;93983.28;;;13.90;42.49
36378;BME280;22402;42.746;23.606;2023-02-20T09:32:24;93997.88;;;13.93;42.55
36378;BME280;22402;42.746;23.606;2023-02-20T09:34:50;93992.03;;;13.99;41.56
36378;BME280;22402;42.746;23.606;2023-02-20T09:37:15;93987.69;;;14.07;41.56
36378;BME280;22402;42.746;23.606;2023-02-20T09:39:40;93989.22;;;14.18;41.37
36378;BME280;22402;42.746;23.606;2023-02-20T09:42:17;93989.97;;;14.28;41.88
36378;BME280;22402;42.746;23.606;2023-02-20T09:49:44;93991.47;;;14.57;40.52
36378;BME280;22402;42.746;23.606;2023-02-20T09:52:10;93999.34;;;14.57;39.92
36378;BME280;22402;42.746;23.606;2023-02-20T09:54:40;94001.41;;;14.71;40.39
36378;BME280;22402;42.746;23.606;2023-02-20T09:57:11;94001.94;;;14.83;39.32
36378;BME280;22402;42.746;23.606;2023-02-20T09:59:41;94000.16;;;14.84;37.81
36378;BME280;22402;42.746;23.606;2023-02-20T10:04:36;93997.06;;;14.88;38.76
36378;BME280;22402;42.746;23.606;2023-02-20T10:07:14;93996.19;;;14.79;38.63
36378;BME280;22402;42.746;23.606;2023-02-20T10:09:40;93993.38;;;14.73;39.15
36378;BME280;22402;42.746;23.606;2023-02-20T10:12:12;93983.03;;;14.71;39.40
36378;BME280;22402;42.746;23.606;2023-02-20T10:22:27;93959.34;;;14.63;39.79
36378;BME280;22402;42.746;23.606;2023-02-20T10:24:58;93955.41;;;14.59;40.31
36378;BME280;22402;42.746;23.606;2023-02-20T10:27:30;93954.78;;;14.65;41.10
36378;BME280;22402;42.746;23.606;2023-02-20T10:29:57;93949.38;;;14.67;41.00
36378;BME280;22402;42.746;23.606;2023-02-20T10:35:02;93945.88;;;14.92;40.42
36378;BME280;22402;42.746;23.606;2023-02-20T10:37:32;93938.22;;;15.07;39.99
36378;BME280;22402;42.746;23.606;2023-02-20T10:40:00;93927.38;;;15.10;39.53
36378;BME280;22402;42.746;23.606;2023-02-20T10:42:31;93923.97;;;15.18;40.00
36378;BME280;22402;42.746;23.606;2023-02-20T10:45:13;93928.94;;;15.29;39.37
36378;BME280;22402;42.746;23.606;2023-02-20T10:53:07;93922.69;;;15.46;37.79
36378;BME280;22402;42.746;23.606;2023-02-20T11:01:02;93912.88;;;15.65;36.94
36378;BME280;22402;42.746;23.606;2023-02-20T11:06:01;93927.63;;;15.49;38.58
36378;BME280;22402;42.746;23.606;2023-02-20T11:08:27;93923.22;;;15.50;38.21
36378;BME280;22402;42.746;23.606;2023-02-20T11:10:55;93919.28;;;15.38;37.32
36378;BME280;22402;42.746;23.606;2023-02-20T11:13:21;93912.69;;;15.34;38.57
36378;BME280;22402;42.746;23.606;2023-02-20T11:15:47;93914.63;;;15.32;38.75
36378;BME280;22402;42.746;23.606;2023-02-20T11:18:34;93919.53;;;15.18;38.55
36378;BME280;22402;42.746;23.606;2023-02-20T11:20:59;93919.38;;;15.20;39.01
36378;BME280;22402;42.746;23.606;2023-02-20T11:28:42;93924.81;;;15.35;38.98
36378;BME280;22402;42.746;23.606;2023-02-20T11:31:08;93917.44;;;15.46;38.59
36378;BME280;22402;42.746;23.606;2023-02-20T11:33:33;93914.34;;;15.59;37.80
36378;BME280;22402;42.746;23.606;2023-02-20T11:38:38;93943.63;;;15.81;37.14
36378;BME280;22402;42.746;23.606;2023-02-20T11:41:06;93936.59;;;15.98;36.88
36378;BME280;22402;42.746;23.606;2023-02-20T11:43:42;93935.91;;;16.20;36.14
36378;BME280;22402;42.746;23.606;2023-02-20T11:46:15;93926.31;;;16.44;34.49
36378;BME280;22402;42.746;23.606;2023-02-20T11:51:31;93928.72;;;16.78;35.23
36378;BME280;22402;42.746;23.606;2023-02-20T11:54:07;93926.00;;;17.02;34.46
36378;BME280;22402;42.746;23.606;2023-02-20T11:56:32;93939.38;;;17.24;35.08
36378;BME280;22402;42.746;23.606;2023-02-20T11:59:12;93927.66;;;17.35;34.17
36378;BME280;22402;42.746;23.606;2023-02-20T12:01:37;93927.41;;;17.44;34.48
36378;BME280;22402;42.746;23.606;2023-02-20T12:04:16;93915.88;;;17.45;33.89
36378;BME280;22402;42.746;23.606;2023-02-20T12:06:42;93920.16;;;17.46;34.49
36378;BME280;22402;42.746;23.606;2023-02-20T12:09:10;93921.13;;;17.45;34.00
36378;BME280;22402;42.746;23.606;2023-02-20T12:11:39;93933.34;;;17.46;32.31
36378;BME280;22402;42.746;23.606;2023-02-20T12:14:13;93922.81;;;17.46;26.14
36378;BME280;22402;42.746;23.606;2023-02-20T12:24:19;93922.81;;;17.46;20.71
36378;BME280;22402;42.746;23.606;2023-02-20T12:26:58;93918.03;;;17.42;21.01
36378;BME280;22402;42.746;23.606;2023-02-20T12:32:19;93925.34;;;17.31;21.45
36378;BME280;22402;42.746;23.606;2023-02-20T12:39:58;93920.25;;;16.99;23.59
36378;BME280;22402;42.746;23.606;2023-02-20T12:45:02;93927.88;;;16.77;23.91
36378;BME280;22402;42.746;23.606;2023-02-20T12:47:32;93936.63;;;16.70;23.93
36378;BME280;22402;42.746;23.606;2023-02-20T12:52:45;93925.50;;;16.51;23.68
36378;BME280;22402;42.746;23.606;2023-02-20T13:00:39;93941.16;;;16.20;26.97
36378;BME280;22402;42.746;23.606;2023-02-20T13:05:40;93939.69;;;16.09;27.67
36378;BME280;22402;42.746;23.606;2023-02-20T13:08:09;93943.63;;;16.05;27.84
36378;BME280;22402;42.746;23.606;2023-02-20T13:13:31;93942.47;;;16.00;28.68
36378;BME280;22402;42.746;23.606;2023-02-20T13:16:06;93943.81;;;15.87;28.60
36378;BME280;22402;42.746;23.606;2023-02-20T13:18:47;93949.91;;;15.80;28.50
36378;BME280;22402;42.746;23.606;2023-02-20T13:21:16;93952.19;;;15.83;29.04
36378;BME280;22402;42.746;23.606;2023-02-20T13:23:42;93954.50;;;15.86;29.74
36378;BME280;22402;42.746;23.606;2023-02-20T13:28:51;93956.44;;;16.08;29.67
36378;BME280;22402;42.746;23.606;2023-02-20T13:31:18;93954.63;;;16.17;28.97
36378;BME280;22402;42.746;23.606;2023-02-20T13:33:46;93954.50;;;16.18;29.49
36378;BME280;22402;42.746;23.606;2023-02-20T13:36:16;93950.19;;;16.26;29.45
36378;BME280;22402;42.746;23.606;2023-02-20T13:38:41;93957.09;;;16.35;29.11
36378;BME280;22402;42.746;23.606;2023-02-20T13:41:27;93960.88;;;16.40;28.87
36378;BME280;22402;42.746;23.606;2023-02-20T13:57:44;93966.78;;;16.26;30.45
36378;BME280;22402;42.746;23.606;2023-02-20T14:02:53;93975.53;;;16.02;30.72
36378;BME280;22402;42.746;23.606;2023-02-20T14:07:47;93971.25;;;15.77;31.52
36378;BME280;22402;42.746;23.606;2023-02-20T14:12:38;93972.13;;;15.43;31.74
36378;BME280;22402;42.746;23.606;2023-02-20T14:15:03;93971.44;;;15.24;32.39
36378;BME280;22402;42.746;23.606;2023-02-20T14:17:29;93983.22;;;15.12;32.84
36378;BME280;22402;42.746;23.606;2023-02-20T14:19:55;93980.81;;;14.93;32.95
36378;BME280;22402;42.746;23.606;2023-02-20T14:24:59;93986.91;;;14.59;34.24
36378;BME280;22402;42.746;23.606;2023-02-20T14:27:25;93974.13;;;14.38;34.55
36378;BME280;22402;42.746;23.606;2023-02-20T14:30:02;93978.22;;;14.14;34.30
36378;BME280;22402;42.746;23.606;2023-02-20T14:32:28;93979.53;;;13.93;34.45
36378;BME280;22402;42.746;23.606;2023-02-20T14:42:38;93988.13;;;13.31;36.18
36378;BME280;22402;42.746;23.606;2023-02-20T14:45:06;93991.72;;;13.20;36.18
36378;BME280;22402;42.746;23.606;2023-02-20T14:47:48;93994.69;;;13.08;37.49
36378;BME280;22402;42.746;23.606;2023-02-20T14:50:18;94003.41;;;12.98;37.69
36378;BME280;22402;42.746;23.606;2023-02-20T14:52:44;94005.28;;;12.88;37.76
36378;BME280;22402;42.746;23.606;2023-02-20T14:55:13;94009.41;;;12.81;38.31
36378;BME280;22402;42.746;23.606;2023-02-20T14:57:39;94011.78;;;12.74;38.22
36378;BME280;22402;42.746;23.606;2023-02-20T15:00:08;94007.25;;;12.67;38.40
36378;BME280;22402;42.746;23.606;2023-02-20T15:02:34;93995.59;;;12.61;38.83
36378;BME280;22402;42.746;23.606;2023-02-20T15:05:04;94007.28;;;12.57;40.58
36378;BME280;22402;42.746;23.606;2023-02-20T15:07:30;94005.41;;;12.49;41.09
36378;BME280;22402;42.746;23.606;2023-02-20T15:09:56;94014.47;;;12.45;41.45
36378;BME280;22402;42.746;23.606;2023-02-20T15:12:22;94015.06;;;12.39;43.15
36378;BME280;22402;42.746;23.606;2023-02-20T15:14:56;94020.31;;;12.29;43.89
36378;BME280;22402;42.746;23.606;2023-02-20T15:17:27;94025.56;;;12.20;44.38
36378;BME280;22402;42.746;23.606;2023-02-20T15:19:52;94017.88;;;12.08;44.48
36378;BME280;22402;42.746;23.606;2023-02-20T15:22:21;94013.47;;;11.99;45.04
36378;BME280;22402;42.746;23.606;2023-02-20T15:24:47;94011.00;;;11.88;45.98
36378;BME280;22402;42.746;23.606;2023-02-20T15:27:16;94012.78;;;11.78;46.80
36378;BME280;22402;42.746;23.606;2023-02-20T15:29:42;94011.09;;;11.67;46.74
36378;BME280;22402;42.746;23.606;2023-02-20T15:32:23;94007.94;;;11.54;47.35
36378;BME280;22402;42.746;23.606;2023-02-20T15:34:53;94007.38;;;11.40;48.06
36378;BME280;22402;42.746;23.606;2023-02-20T15:37:32;94004.19;;;11.27;48.46
36378;BME280;22402;42.746;23.606;2023-02-20T15:40:05;94016.53;;;11.15;48.96
36378;BME280;22402;42.746;23.606;2023-02-20T15:42:31;94016.66;;;11.04;49.32
36378;BME280;22402;42.746;23.606;2023-02-20T15:44:56;94014.84;;;10.95;50.32
36378;BME280;22402;42.746;23.606;2023-02-20T15:47:21;94022.50;;;10.87;50.77
36378;BME280;22402;42.746;23.606;2023-02-20T15:49:46;94005.84;;;10.78;50.18
36378;BME280;22402;42.746;23.606;2023-02-20T15:52:16;94011.03;;;10.68;50.45
36378;BME280;22402;42.746;23.606;2023-02-20T15:54:44;94016.19;;;10.59;51.41
36378;BME280;22402;42.746;23.606;2023-02-20T15:57:16;94022.06;;;10.51;51.63
36378;BME280;22402;42.746;23.606;2023-02-20T15:59:41;94018.44;;;10.42;51.63
36378;BME280;22402;42.746;23.606;2023-02-20T16:02:17;94025.25;;;10.34;52.12
36378;BME280;22402;42.746;23.606;2023-02-20T16:04:42;94022.44;;;10.25;52.61
36378;BME280;22402;42.746;23.606;2023-02-20T16:07:07;94032.81;;;10.16;52.41
36378;BME280;22402;42.746;23.606;2023-02-20T16:09:32;94035.22;;;10.08;52.87
36378;BME280;22402;42.746;23.606;2023-02-20T16:11:58;94047.94;;;10.01;52.37
36378;BME280;22402;42.746;23.606;2023-02-20T16:14:23;94055.28;;;9.96;53.12
36378;BME280;22402;42.746;23.606;2023-02-20T16:16:49;94056.59;;;9.90;53.04
36378;BME280;22402;42.746;23.606;2023-02-20T16:19:19;94062.31;;;9.84;53.77
36378;BME280;22402;42.746;23.606;2023-02-20T16:21:44;94051.56;;;9.77;54.27
36378;BME280;22402;42.746;23.606;2023-02-20T16:24:10;94049.38;;;9.73;54.00
36378;BME280;22402;42.746;23.606;2023-02-20T16:26:36;94054.22;;;9.66;53.91
36378;BME280;22402;42.746;23.606;2023-02-20T16:29:04;94050.22;;;9.62;54.59
36378;BME280;22402;42.746;23.606;2023-02-20T16:34:14;94047.19;;;9.46;54.83
36378;BME280;22402;42.746;23.606;2023-02-20T16:36:39;94040.25;;;9.35;55.03
36378;BME280;22402;42.746;23.606;2023-02-20T16:39:04;94044.41;;;9.26;55.32
36378;BME280;22402;42.746;23.606;2023-02-20T16:41:29;94054.59;;;9.18;55.36
36378;BME280;22402;42.746;23.606;2023-02-20T16:43:55;94051.75;;;9.10;55.55
36378;BME280;22402;42.746;23.606;2023-02-20T16:46:20;94060.03;;;9.04;55.75
36378;BME280;22402;42.746;23.606;2023-02-20T16:48:45;94065.72;;;8.98;55.19
36378;BME280;22402;42.746;23.606;2023-02-20T16:51:10;94070.47;;;8.93;56.04
36378;BME280;22402;42.746;23.606;2023-02-20T16:53:36;94088.91;;;8.89;55.93
36378;BME280;22402;42.746;23.606;2023-02-20T16:56:01;94090.06;;;8.85;56.36
36378;BME280;22402;42.746;23.606;2023-02-20T16:58:26;94087.72;;;8.82;55.97
36378;BME280;22402;42.746;23.606;2023-02-20T17:00:51;94083.72;;;8.78;55.97
36378;BME280;22402;42.746;23.606;2023-02-20T17:03:16;94083.13;;;8.75;56.96
36378;BME280;22402;42.746;23.606;2023-02-20T17:05:42;94081.81;;;8.69;56.87
36378;BME280;22402;42.746;23.606;2023-02-20T17:08:07;94078.00;;;8.62;57.05
36378;BME280;22402;42.746;23.606;2023-02-20T17:10:32;94076.69;;;8.56;57.13
36378;BME280;22402;42.746;23.606;2023-02-20T17:12:57;94078.94;;;8.50;56.81
36378;BME280;22402;42.746;23.606;2023-02-20T17:15:23;94075.03;;;8.44;57.25
36378;BME280;22402;42.746;23.606;2023-02-20T17:17:49;94080.66;;;8.38;57.22
36378;BME280;22402;42.746;23.606;2023-02-20T17:20:16;94071.56;;;8.32;57.39
36378;BME280;22402;42.746;23.606;2023-02-20T17:22:41;94077.94;;;8.28;57.64
36378;BME280;22402;42.746;23.606;2023-02-20T17:25:07;94082.66;;;8.23;57.15
36378;BME280;22402;42.746;23.606;2023-02-20T17:27:32;94085.84;;;8.15;57.62
36378;BME280;22402;42.746;23.606;2023-02-20T17:29:57;94092.31;;;8.10;57.41
36378;BME280;22402;42.746;23.606;2023-02-20T17:32:22;94094.41;;;8.05;57.91
36378;BME280;22402;42.746;23.606;2023-02-20T17:34:47;94091.44;;;7.98;58.58
36378;BME280;22402;42.746;23.606;2023-02-20T17:37:13;94095.31;;;7.92;58.71
36378;BME280;22402;42.746;23.606;2023-02-20T17:39:38;94082.66;;;7.88;58.91
36378;BME280;22402;42.746;23.606;2023-02-20T17:42:03;94085.69;;;7.82;59.18
36378;BME280;22402;42.746;23.606;2023-02-20T17:44:29;94087.09;;;7.74;59.19
36378;BME280;22402;42.746;23.606;2023-02-20T17:46:55;94076.13;;;7.71;59.16
36378;BME280;22402;42.746;23.606;2023-02-20T17:49:21;94073.13;;;7.64;59.54
36378;BME280;22402;42.746;23.606;2023-02-20T17:51:48;94080.31;;;7.61;60.09
36378;BME280;22402;42.746;23.606;2023-02-20T17:54:14;94079.94;;;7.54;60.52
36378;BME280;22402;42.746;23.606;2023-02-20T17:56:40;94084.59;;;7.49;60.64
36378;BME280;22402;42.746;23.606;2023-02-20T17:59:05;94085.78;;;7.45;60.69
36378;BME280;22402;42.746;23.606;2023-02-20T18:01:30;94081.63;;;7.42;60.83
36378;BME280;22402;42.746;23.606;2023-02-20T18:03:55;94088.81;;;7.39;61.16
36378;BME280;22402;42.746;23.606;2023-02-20T18:06:21;94083.94;;;7.34;60.84
36378;BME280;22402;42.746;23.606;2023-02-20T18:08:47;94086.88;;;7.29;61.43
36378;BME280;22402;42.746;23.606;2023-02-20T18:11:12;94076.00;;;7.24;61.71
36378;BME280;22402;42.746;23.606;2023-02-20T18:13:37;94088.56;;;7.18;62.03
36378;BME280;22402;42.746;23.606;2023-02-20T18:16:03;94085.47;;;7.13;61.97
36378;BME280;22402;42.746;23.606;2023-02-20T18:18:28;94089.22;;;7.08;62.46
36378;BME280;22402;42.746;23.606;2023-02-20T18:20:53;94088.72;;;7.03;62.52
36378;BME280;22402;42.746;23.606;2023-02-20T18:23:18;94089.88;;;6.99;62.38
36378;BME280;22402;42.746;23.606;2023-02-20T18:25:43;94088.41;;;6.95;62.32
36378;BME280;22402;42.746;23.606;2023-02-20T18:28:09;94087.91;;;6.90;62.63
36378;BME280;22402;42.746;23.606;2023-02-20T18:30:34;94081.28;;;6.86;63.01
36378;BME280;22402;42.746;23.606;2023-02-20T18:32:59;94086.88;;;6.80;63.43
36378;BME280;22402;42.746;23.606;2023-02-20T18:35:25;94083.06;;;6.73;63.85
36378;BME280;22402;42.746;23.606;2023-02-20T18:37:50;94084.31;;;6.67;64.10
36378;BME280;22402;42.746;23.606;2023-02-20T18:40:15;94088.38;;;6.58;65.34
36378;BME280;22402;42.746;23.606;2023-02-20T18:42:41;94085.38;;;6.52;65.61
36378;BME280;22402;42.746;23.606;2023-02-20T18:45:06;94094.38;;;6.46;65.92
36378;BME280;22402;42.746;23.606;2023-02-20T18:47:31;94081.03;;;6.39;65.86
36378;BME280;22402;42.746;23.606;2023-02-20T18:49:56;94078.00;;;6.33;66.71
36378;BME280;22402;42.746;23.606;2023-02-20T18:52:22;94077.50;;;6.28;67.39
36378;BME280;22402;42.746;23.606;2023-02-20T18:54:47;94073.44;;;6.24;66.84
36378;BME280;22402;42.746;23.606;2023-02-20T18:57:12;94072.72;;;6.22;67.34
36378;BME280;22402;42.746;23.606;2023-02-20T18:59:41;94081.53;;;6.19;66.67
36378;BME280;22402;42.746;23.606;2023-02-20T19:02:06;94073.84;;;6.18;67.51
36378;BME280;22402;42.746;23.606;2023-02-20T19:04:31;94076.63;;;6.14;67.32
36378;BME280;22402;42.746;23.606;2023-02-20T19:06:57;94066.50;;;6.11;67.22
36378;BME280;22402;42.746;23.606;2023-02-20T19:09:22;94058.94;;;6.08;67.56
36378;BME280;22402;42.746;23.606;2023-02-20T19:11:52;94061.53;;;6.08;67.51
36378;BME280;22402;42.746;23.606;2023-02-20T19:14:18;94055.59;;;6.06;68.00
36378;BME280;22402;42.746;23.606;2023-02-20T19:16:50;94054.91;;;6.04;68.48
36378;BME280;22402;42.746;23.606;2023-02-20T19:19:16;94048.78;;;6.05;67.63
36378;BME280;22402;42.746;23.606;2023-02-20T19:21:41;94046.41;;;6.02;68.21
36378;BME280;22402;42.746;23.606;2023-02-20T19:24:06;94043.06;;;6.00;68.49
36378;BME280;22402;42.746;23.606;2023-02-20T19:26:32;94045.66;;;6.00;69.42
36378;BME280;22402;42.746;23.606;2023-02-20T19:28:57;94043.19;;;5.99;69.63
36378;BME280;22402;42.746;23.606;2023-02-20T19:31:22;94038.84;;;5.99;69.76
36378;BME280;22402;42.746;23.606;2023-02-20T19:33:48;94037.06;;;6.00;69.61
36378;BME280;22402;42.746;23.606;2023-02-20T19:36:13;94038.00;;;5.99;70.48
36378;BME280;22402;42.746;23.606;2023-02-20T19:38:38;94035.44;;;5.99;70.61
36378;BME280;22402;42.746;23.606;2023-02-20T19:41:03;94024.25;;;5.98;70.29
36378;BME280;22402;42.746;23.606;2023-02-20T19:43:29;94023.31;;;5.99;71.20
36378;BME280;22402;42.746;23.606;2023-02-20T19:45:54;94019.69;;;6.02;71.04
36378;BME280;22402;42.746;23.606;2023-02-20T19:48:19;94014.50;;;6.02;70.37
36378;BME280;22402;42.746;23.606;2023-02-20T19:50:44;94019.56;;;6.03;70.92
36378;BME280;22402;42.746;23.606;2023-02-20T19:53:09;94019.47;;;6.05;71.42
36378;BME280;22402;42.746;23.606;2023-02-20T19:55:35;94033.16;;;6.07;71.12
36378;BME280;22402;42.746;23.606;2023-02-20T19:58:00;94015.22;;;6.04;70.94
36378;BME280;22402;42.746;23.606;2023-02-20T20:00:25;94019.88;;;6.11;71.22
36378;BME280;22402;42.746;23.606;2023-02-20T20:02:51;94019.88;;;6.11;71.21
36378;BME280;22402;42.746;23.606;2023-02-20T20:05:16;94016.34;;;6.12;71.19
36378;BME280;22402;42.746;23.606;2023-02-20T20:07:41;94017.31;;;6.11;71.02
36378;BME280;22402;42.746;23.606;2023-02-20T20:10:07;94012.84;;;6.13;70.18
36378;BME280;22402;42.746;23.606;2023-02-20T20:12:33;94011.91;;;6.14;70.06
36378;BME280;22402;42.746;23.606;2023-02-20T20:14:58;94005.78;;;6.15;70.16
36378;BME280;22402;42.746;23.606;2023-02-20T20:17:23;94010.97;;;6.15;70.60
36378;BME280;22402;42.746;23.606;2023-02-20T20:19:48;94013.47;;;6.17;70.95
36378;BME280;22402;42.746;23.606;2023-02-20T20:22:13;94023.84;;;6.17;70.53
36378;BME280;22402;42.746;23.606;2023-02-20T20:24:38;94009.13;;;6.18;70.83
36378;BME280;22402;42.746;23.606;2023-02-20T20:27:04;93993.59;;;6.18;70.30
36378;BME280;22402;42.746;23.606;2023-02-20T20:29:29;93984.88;;;6.19;70.72
36378;BME280;22402;42.746;23.606;2023-02-20T20:31:54;93984.88;;;6.19;70.75
36378;BME280;22402;42.746;23.606;2023-02-20T20:34:19;93994.31;;;6.20;70.69
36378;BME280;22402;42.746;23.606;2023-02-20T20:36:44;93995.22;;;6.19;70.21
36378;BME280;22402;42.746;23.606;2023-02-20T20:39:09;93994.31;;;6.20;70.25
36378;BME280;22402;42.746;23.606;2023-02-20T20:41:35;93990.06;;;6.19;70.84
36378;BME280;22402;42.746;23.606;2023-02-20T20:44:00;94003.00;;;6.19;70.23
36378;BME280;22402;42.746;23.606;2023-02-20T20:46:25;94003.13;;;6.17;70.30
36378;BME280;22402;42.746;23.606;2023-02-20T20:48:50;93996.28;;;6.16;70.59
36378;BME280;22402;42.746;23.606;2023-02-20T20:51:16;93995.44;;;6.15;70.64
36378;BME280;22402;42.746;23.606;2023-02-20T20:53:41;93992.25;;;6.12;70.11
36378;BME280;22402;42.746;23.606;2023-02-20T20:56:07;93998.03;;;6.15;70.34
36378;BME280;22402;42.746;23.606;2023-02-20T20:58:32;93986.75;;;6.16;71.22
36378;BME280;22402;42.746;23.606;2023-02-20T21:00:57;93980.75;;;6.16;70.98
36378;BME280;22402;42.746;23.606;2023-02-20T21:03:23;93988.41;;;6.18;70.56
36378;BME280;22402;42.746;23.606;2023-02-20T21:05:48;93978.06;;;6.18;70.10
36378;BME280;22402;42.746;23.606;2023-02-20T21:08:13;93982.41;;;6.17;70.36
36378;BME280;22402;42.746;23.606;2023-02-20T21:10:39;93971.22;;;6.16;70.15
36378;BME280;22402;42.746;23.606;2023-02-20T21:13:04;93972.88;;;6.18;70.48
36378;BME280;22402;42.746;23.606;2023-02-20T21:15:29;93961.78;;;6.15;70.70
36378;BME280;22402;42.746;23.606;2023-02-20T21:17:55;93971.22;;;6.16;71.04
36378;BME280;22402;42.746;23.606;2023-02-20T21:20:21;93974.63;;;6.17;70.97
36378;BME280;22402;42.746;23.606;2023-02-20T21:22:47;93968.50;;;6.18;70.99
36378;BME280;22402;42.746;23.606;2023-02-20T21:25:12;93962.50;;;6.18;71.00
36378;BME280;22402;42.746;23.606;2023-02-20T21:27:37;93953.81;;;6.19;70.78
36378;BME280;22402;42.746;23.606;2023-02-20T21:30:03;93955.47;;;6.20;69.90
36378;BME280;22402;42.746;23.606;2023-02-20T21:32:29;93949.34;;;6.21;70.35
36378;BME280;22402;42.746;23.606;2023-02-20T21:34:54;93944.91;;;6.23;70.60
36378;BME280;22402;42.746;23.606;2023-02-20T21:37:20;93944.69;;;6.26;69.78
36378;BME280;22402;42.746;23.606;2023-02-20T21:39:45;93939.31;;;6.29;69.22
36378;BME280;22402;42.746;23.606;2023-02-20T21:42:10;93928.72;;;6.32;69.35
36378;BME280;22402;42.746;23.606;2023-02-20T21:44:36;93929.34;;;6.35;69.40
36378;BME280;22402;42.746;23.606;2023-02-20T21:47:03;93930.97;;;6.36;68.77
36378;BME280;22402;42.746;23.606;2023-02-20T21:49:29;93934.22;;;6.40;69.35
36378;BME280;22402;42.746;23.606;2023-02-20T21:51:55;93937.41;;;6.44;68.29
36378;BME280;22402;42.746;23.606;2023-02-20T21:54:21;93936.38;;;6.46;67.95